sensor_id;sensor_type;location;lat;lon;timestamp;P1;durP1;ratioP1;P2;durP2;ratioP2
59054;SDS011;44845;51.444;7.460;2023-04-06T00:00:35;12.32;;;7.28;;
59054;SDS011;44845;51.444;7.460;2023-04-06T00:03:01;13.15;;;7.47;;
59054;SDS011;44845;51.444;7.460;2023-04-06T00:05:26;8.38;;;5.55;;
59054;SDS011;44845;51.444;7.460;2023-04-06T00:07:52;13.18;;;7.43;;
59054;SDS011;44845;51.444;7.460;2023-04-06T00:10:19;15.15;;;6.43;;
59054;SDS011;44845;51.444;7.460;2023-04-06T00:12:44;12.65;;;6.97;;
59054;SDS011;44845;51.444;7.460;2023-04-06T00:15:10;11.02;;;6.70;;
59054;SDS011;44845;51.444;7.460;2023-04-06T00:17:35;12.38;;;6.75;;
59054;SDS011;44845;51.444;7.460;2023-04-06T00:20:01;10.23;;;6.05;;
59054;SDS011;44845;51.444;7.460;2023-04-06T00:22:26;9.85;;;6.15;;
59054;SDS011;44845;51.444;7.460;2023-04-06T00:24:51;10.15;;;6.63;;
59054;SDS011;44845;51.444;7.460;2023-04-06T00:27:17;11.82;;;6.25;;
59054;SDS011;44845;51.444;7.460;2023-04-06T00:29:43;12.52;;;6.13;;
59054;SDS011;44845;51.444;7.460;2023-04-06T00:32:08;8.80;;;5.57;;
59054;SDS011;44845;51.444;7.460;2023-04-06T00:34:34;11.48;;;6.43;;
59054;SDS011;44845;51.444;7.460;2023-04-06T00:36:59;7.60;;;5.75;;
59054;SDS011;44845;51.444;7.460;2023-04-06T00:39:25;10.55;;;6.18;;
59054;SDS011;44845;51.444;7.460;2023-04-06T00:41:51;13.80;;;6.60;;
59054;SDS011;44845;51.444;7.460;2023-04-06T00:44:17;11.05;;;6.18;;
59054;SDS011;44845;51.444;7.460;2023-04-06T00:46:43;9.90;;;6.35;;
59054;SDS011;44845;51.444;7.460;2023-04-06T00:49:09;9.40;;;5.95;;
59054;SDS011;44845;51.444;7.460;2023-04-06T00:51:34;8.68;;;6.00;;
59054;SDS011;44845;51.444;7.460;2023-04-06T00:54:00;8.85;;;6.10;;
59054;SDS011;44845;51.444;7.460;2023-04-06T00:56:25;9.63;;;6.05;;
59054;SDS011;44845;51.444;7.460;2023-04-06T00:58:51;7.28;;;5.72;;
59054;SDS011;44845;51.444;7.460;2023-04-06T01:01:17;7.47;;;5.63;;
59054;SDS011;44845;51.444;7.460;2023-04-06T01:03:42;10.27;;;6.28;;
59054;SDS011;44845;51.444;7.460;2023-04-06T01:06:09;13.00;;;6.13;;
59054;SDS011;44845;51.444;7.460;2023-04-06T01:08:35;8.70;;;5.95;;
59054;SDS011;44845;51.444;7.460;2023-04-06T01:11:01;9.63;;;6.10;;
59054;SDS011;44845;51.444;7.460;2023-04-06T01:13:26;9.57;;;5.95;;
59054;SDS011;44845;51.444;7.460;2023-04-06T01:15:52;8.45;;;5.75;;
59054;SDS011;44845;51.444;7.460;2023-04-06T01:18:18;9.50;;;6.20;;
59054;SDS011;44845;51.444;7.460;2023-04-06T01:20:43;10.65;;;5.63;;
59054;SDS011;44845;51.444;7.460;2023-04-06T01:23:08;10.70;;;6.10;;
59054;SDS011;44845;51.444;7.460;2023-04-06T01:25:34;9.50;;;5.72;;
59054;SDS011;44845;51.444;7.460;2023-04-06T01:27:59;9.73;;;5.10;;
59054;SDS011;44845;51.444;7.460;2023-04-06T01:30:24;10.38;;;5.90;;
59054;SDS011;44845;51.444;7.460;2023-04-06T01:32:50;11.50;;;5.72;;
59054;SDS011;44845;51.444;7.460;2023-04-06T01:35:16;7.93;;;5.57;;
59054;SDS011;44845;51.444;7.460;2023-04-06T01:37:43;7.95;;;5.78;;
59054;SDS011;44845;51.444;7.460;2023-04-06T01:40:08;7.90;;;5.60;;
59054;SDS011;44845;51.444;7.460;2023-04-06T01:42:34;12.93;;;5.50;;
59054;SDS011;44845;51.444;7.460;2023-04-06T01:44:59;13.77;;;5.68;;
59054;SDS011;44845;51.444;7.460;2023-04-06T01:47:25;9.15;;;5.78;;
59054;SDS011;44845;51.444;7.460;2023-04-06T01:49:50;8.93;;;5.35;;
59054;SDS011;44845;51.444;7.460;2023-04-06T01:52:16;9.48;;;5.78;;
59054;SDS011;44845;51.444;7.460;2023-04-06T01:54:41;8.10;;;5.75;;
59054;SDS011;44845;51.444;7.460;2023-04-06T01:57:07;9.15;;;5.47;;
59054;SDS011;44845;51.444;7.460;2023-04-06T01:59:33;9.25;;;5.40;;
59054;SDS011;44845;51.444;7.460;2023-04-06T02:01:58;10.13;;;5.43;;
59054;SDS011;44845;51.444;7.460;2023-04-06T02:04:24;8.32;;;5.20;;
59054;SDS011;44845;51.444;7.460;2023-04-06T02:06:49;8.07;;;5.28;;
59054;SDS011;44845;51.444;7.460;2023-04-06T02:09:15;8.25;;;5.80;;
59054;SDS011;44845;51.444;7.460;2023-04-06T02:11:40;8.80;;;5.13;;
59054;SDS011;44845;51.444;7.460;2023-04-06T02:14:06;8.18;;;5.32;;
59054;SDS011;44845;51.444;7.460;2023-04-06T02:16:31;7.40;;;4.72;;
59054;SDS011;44845;51.444;7.460;2023-04-06T02:18:56;7.93;;;5.38;;
59054;SDS011;44845;51.444;7.460;2023-04-06T02:21:22;9.82;;;5.50;;
59054;SDS011;44845;51.444;7.460;2023-04-06T02:23:47;6.97;;;5.05;;
59054;SDS011;44845;51.444;7.460;2023-04-06T02:26:14;8.57;;;5.85;;
59054;SDS011;44845;51.444;7.460;2023-04-06T02:28:39;10.30;;;5.32;;
59054;SDS011;44845;51.444;7.460;2023-04-06T02:31:05;10.45;;;5.13;;
59054;SDS011;44845;51.444;7.460;2023-04-06T02:33:30;8.07;;;5.10;;
59054;SDS011;44845;51.444;7.460;2023-04-06T02:35:56;9.45;;;6.07;;
59054;SDS011;44845;51.444;7.460;2023-04-06T02:38:21;8.25;;;4.93;;
59054;SDS011;44845;51.444;7.460;2023-04-06T02:40:46;8.35;;;5.13;;
59054;SDS011;44845;51.444;7.460;2023-04-06T02:43:12;8.23;;;5.47;;
59054;SDS011;44845;51.444;7.460;2023-04-06T02:45:37;7.18;;;4.88;;
59054;SDS011;44845;51.444;7.460;2023-04-06T02:48:02;7.97;;;5.03;;
59054;SDS011;44845;51.444;7.460;2023-04-06T02:50:28;9.32;;;5.45;;
59054;SDS011;44845;51.444;7.460;2023-04-06T02:52:53;8.98;;;4.97;;
59054;SDS011;44845;51.444;7.460;2023-04-06T02:55:18;7.68;;;5.25;;
59054;SDS011;44845;51.444;7.460;2023-04-06T02:57:44;7.47;;;5.03;;
59054;SDS011;44845;51.444;7.460;2023-04-06T03:00:10;7.00;;;5.10;;
59054;SDS011;44845;51.444;7.460;2023-04-06T03:02:36;8.07;;;5.45;;
59054;SDS011;44845;51.444;7.460;2023-04-06T03:05:02;10.02;;;5.60;;
59054;SDS011;44845;51.444;7.460;2023-04-06T03:07:28;9.82;;;5.32;;
59054;SDS011;44845;51.444;7.460;2023-04-06T03:09:54;7.82;;;4.78;;
59054;SDS011;44845;51.444;7.460;2023-04-06T03:12:19;10.10;;;5.22;;
59054;SDS011;44845;51.444;7.460;2023-04-06T03:14:45;8.43;;;5.70;;
59054;SDS011;44845;51.444;7.460;2023-04-06T03:17:10;9.32;;;5.47;;
59054;SDS011;44845;51.444;7.460;2023-04-06T03:19:35;8.48;;;5.50;;
59054;SDS011;44845;51.444;7.460;2023-04-06T03:22:01;7.55;;;5.40;;
59054;SDS011;44845;51.444;7.460;2023-04-06T03:24:26;9.13;;;5.75;;
59054;SDS011;44845;51.444;7.460;2023-04-06T03:26:52;12.40;;;5.28;;
59054;SDS011;44845;51.444;7.460;2023-04-06T03:29:17;7.45;;;5.30;;
59054;SDS011;44845;51.444;7.460;2023-04-06T03:31:43;11.10;;;6.05;;
59054;SDS011;44845;51.444;7.460;2023-04-06T03:34:08;9.15;;;5.65;;
59054;SDS011;44845;51.444;7.460;2023-04-06T03:36:34;11.15;;;5.45;;
59054;SDS011;44845;51.444;7.460;2023-04-06T03:38:59;10.07;;;5.85;;
59054;SDS011;44845;51.444;7.460;2023-04-06T03:41:25;10.02;;;5.00;;
59054;SDS011;44845;51.444;7.460;2023-04-06T03:43:51;10.05;;;5.57;;
59054;SDS011;44845;51.444;7.460;2023-04-06T03:46:16;9.18;;;5.50;;
59054;SDS011;44845;51.444;7.460;2023-04-06T03:48:42;11.00;;;5.68;;
59054;SDS011;44845;51.444;7.460;2023-04-06T03:51:07;9.10;;;5.40;;
59054;SDS011;44845;51.444;7.460;2023-04-06T03:53:32;8.40;;;6.03;;
59054;SDS011;44845;51.444;7.460;2023-04-06T03:55:58;9.02;;;4.85;;
59054;SDS011;44845;51.444;7.460;2023-04-06T03:58:23;9.98;;;5.13;;
59054;SDS011;44845;51.444;7.460;2023-04-06T04:00:48;9.20;;;5.80;;
59054;SDS011;44845;51.444;7.460;2023-04-06T04:03:14;7.25;;;4.90;;
59054;SDS011;44845;51.444;7.460;2023-04-06T04:05:39;8.57;;;5.43;;
59054;SDS011;44845;51.444;7.460;2023-04-06T04:08:05;8.48;;;5.45;;
59054;SDS011;44845;51.444;7.460;2023-04-06T04:10:30;9.00;;;5.43;;
59054;SDS011;44845;51.444;7.460;2023-04-06T04:12:55;7.35;;;4.25;;
59054;SDS011;44845;51.444;7.460;2023-04-06T04:15:21;7.03;;;4.85;;
59054;SDS011;44845;51.444;7.460;2023-04-06T04:17:46;7.43;;;5.18;;
59054;SDS011;44845;51.444;7.460;2023-04-06T04:20:14;8.30;;;5.25;;
59054;SDS011;44845;51.444;7.460;2023-04-06T04:22:40;7.10;;;5.10;;
59054;SDS011;44845;51.444;7.460;2023-04-06T04:25:05;8.23;;;5.30;;
59054;SDS011;44845;51.444;7.460;2023-04-06T04:27:31;8.05;;;5.30;;
59054;SDS011;44845;51.444;7.460;2023-04-06T04:29:56;8.82;;;5.68;;
59054;SDS011;44845;51.444;7.460;2023-04-06T04:32:21;10.55;;;5.70;;
59054;SDS011;44845;51.444;7.460;2023-04-06T04:34:47;7.38;;;5.20;;
59054;SDS011;44845;51.444;7.460;2023-04-06T04:37:12;10.57;;;5.15;;
59054;SDS011;44845;51.444;7.460;2023-04-06T04:39:37;11.05;;;5.30;;
59054;SDS011;44845;51.444;7.460;2023-04-06T04:42:03;7.55;;;5.22;;
59054;SDS011;44845;51.444;7.460;2023-04-06T04:44:28;10.25;;;5.38;;
59054;SDS011;44845;51.444;7.460;2023-04-06T04:46:53;8.52;;;5.00;;
59054;SDS011;44845;51.444;7.460;2023-04-06T04:49:19;8.20;;;5.18;;
59054;SDS011;44845;51.444;7.460;2023-04-06T04:51:44;8.45;;;5.80;;
59054;SDS011;44845;51.444;7.460;2023-04-06T04:54:10;9.10;;;5.28;;
59054;SDS011;44845;51.444;7.460;2023-04-06T04:56:35;8.75;;;5.55;;
59054;SDS011;44845;51.444;7.460;2023-04-06T04:59:00;10.13;;;5.65;;
59054;SDS011;44845;51.444;7.460;2023-04-06T05:01:26;9.45;;;5.88;;
59054;SDS011;44845;51.444;7.460;2023-04-06T05:03:51;14.35;;;5.63;;
59054;SDS011;44845;51.444;7.460;2023-04-06T05:06:17;12.18;;;5.82;;
59054;SDS011;44845;51.444;7.460;2023-04-06T05:08:43;10.32;;;5.93;;
59054;SDS011;44845;51.444;7.460;2023-04-06T05:11:09;11.10;;;5.68;;
59054;SDS011;44845;51.444;7.460;2023-04-06T05:13:34;10.70;;;5.22;;
59054;SDS011;44845;51.444;7.460;2023-04-06T05:16:00;8.63;;;5.38;;
59054;SDS011;44845;51.444;7.460;2023-04-06T05:18:25;9.10;;;5.55;;
59054;SDS011;44845;51.444;7.460;2023-04-06T05:20:51;7.50;;;4.72;;
59054;SDS011;44845;51.444;7.460;2023-04-06T05:23:16;8.27;;;4.90;;
59054;SDS011;44845;51.444;7.460;2023-04-06T05:25:42;7.43;;;4.80;;
59054;SDS011;44845;51.444;7.460;2023-04-06T05:28:07;7.65;;;4.65;;
59054;SDS011;44845;51.444;7.460;2023-04-06T05:30:32;8.45;;;4.65;;
59054;SDS011;44845;51.444;7.460;2023-04-06T05:32:58;9.73;;;4.75;;
59054;SDS011;44845;51.444;7.460;2023-04-06T05:35:23;8.40;;;5.13;;
59054;SDS011;44845;51.444;7.460;2023-04-06T05:37:49;8.02;;;4.43;;
59054;SDS011;44845;51.444;7.460;2023-04-06T05:40:14;8.25;;;4.95;;
59054;SDS011;44845;51.444;7.460;2023-04-06T05:42:40;8.70;;;5.15;;
59054;SDS011;44845;51.444;7.460;2023-04-06T05:45:10;10.05;;;5.53;;
59054;SDS011;44845;51.444;7.460;2023-04-06T05:47:41;9.43;;;5.40;;
59054;SDS011;44845;51.444;7.460;2023-04-06T05:50:07;8.43;;;5.53;;
59054;SDS011;44845;51.444;7.460;2023-04-06T05:52:33;10.75;;;5.65;;
59054;SDS011;44845;51.444;7.460;2023-04-06T05:54:58;9.45;;;5.65;;
59054;SDS011;44845;51.444;7.460;2023-04-06T05:57:23;7.43;;;5.07;;
59054;SDS011;44845;51.444;7.460;2023-04-06T05:59:49;7.80;;;4.82;;
59054;SDS011;44845;51.444;7.460;2023-04-06T06:02:14;8.05;;;5.05;;
59054;SDS011;44845;51.444;7.460;2023-04-06T06:04:40;9.27;;;5.40;;
59054;SDS011;44845;51.444;7.460;2023-04-06T06:07:05;10.02;;;5.00;;
59054;SDS011;44845;51.444;7.460;2023-04-06T06:09:30;9.48;;;5.10;;
59054;SDS011;44845;51.444;7.460;2023-04-06T06:11:56;7.82;;;4.82;;
59054;SDS011;44845;51.444;7.460;2023-04-06T06:14:21;9.82;;;5.00;;
59054;SDS011;44845;51.444;7.460;2023-04-06T06:16:49;6.10;;;4.45;;
59054;SDS011;44845;51.444;7.460;2023-04-06T06:19:14;7.78;;;4.85;;
59054;SDS011;44845;51.444;7.460;2023-04-06T06:21:40;6.55;;;4.50;;
59054;SDS011;44845;51.444;7.460;2023-04-06T06:24:05;9.30;;;5.70;;
59054;SDS011;44845;51.444;7.460;2023-04-06T06:26:31;7.63;;;4.55;;
59054;SDS011;44845;51.444;7.460;2023-04-06T06:28:57;6.60;;;4.55;;
59054;SDS011;44845;51.444;7.460;2023-04-06T06:31:22;6.88;;;4.38;;
59054;SDS011;44845;51.444;7.460;2023-04-06T06:33:48;6.85;;;4.47;;
59054;SDS011;44845;51.444;7.460;2023-04-06T06:36:17;7.38;;;4.68;;
59054;SDS011;44845;51.444;7.460;2023-04-06T06:38:43;6.70;;;4.13;;
59054;SDS011;44845;51.444;7.460;2023-04-06T06:41:10;7.40;;;4.32;;
59054;SDS011;44845;51.444;7.460;2023-04-06T06:43:35;5.63;;;4.05;;
59054;SDS011;44845;51.444;7.460;2023-04-06T06:46:01;9.25;;;5.03;;
59054;SDS011;44845;51.444;7.460;2023-04-06T06:48:26;6.95;;;4.88;;
59054;SDS011;44845;51.444;7.460;2023-04-06T06:50:52;6.15;;;4.22;;
59054;SDS011;44845;51.444;7.460;2023-04-06T06:53:17;8.55;;;4.90;;
59054;SDS011;44845;51.444;7.460;2023-04-06T06:55:42;7.55;;;4.50;;
59054;SDS011;44845;51.444;7.460;2023-04-06T06:58:09;7.85;;;4.35;;
59054;SDS011;44845;51.444;7.460;2023-04-06T07:00:34;6.90;;;4.60;;
59054;SDS011;44845;51.444;7.460;2023-04-06T07:03:00;6.93;;;4.70;;
59054;SDS011;44845;51.444;7.460;2023-04-06T07:05:25;8.88;;;4.22;;
59054;SDS011;44845;51.444;7.460;2023-04-06T07:07:51;7.95;;;4.80;;
59054;SDS011;44845;51.444;7.460;2023-04-06T07:10:17;6.53;;;4.43;;
59054;SDS011;44845;51.444;7.460;2023-04-06T07:12:42;8.57;;;4.60;;
59054;SDS011;44845;51.444;7.460;2023-04-06T07:15:07;8.15;;;4.30;;
59054;SDS011;44845;51.444;7.460;2023-04-06T07:17:33;8.63;;;4.60;;
59054;SDS011;44845;51.444;7.460;2023-04-06T07:19:59;9.80;;;4.55;;
59054;SDS011;44845;51.444;7.460;2023-04-06T07:22:24;9.82;;;4.75;;
59054;SDS011;44845;51.444;7.460;2023-04-06T07:24:49;7.75;;;4.60;;
59054;SDS011;44845;51.444;7.460;2023-04-06T07:27:16;10.15;;;4.65;;
59054;SDS011;44845;51.444;7.460;2023-04-06T07:29:42;8.10;;;4.50;;
59054;SDS011;44845;51.444;7.460;2023-04-06T07:32:07;8.23;;;5.20;;
59054;SDS011;44845;51.444;7.460;2023-04-06T07:34:33;6.68;;;4.47;;
59054;SDS011;44845;51.444;7.460;2023-04-06T07:36:58;7.50;;;5.03;;
59054;SDS011;44845;51.444;7.460;2023-04-06T07:39:24;8.60;;;5.25;;
59054;SDS011;44845;51.444;7.460;2023-04-06T07:41:51;9.02;;;5.03;;
59054;SDS011;44845;51.444;7.460;2023-04-06T07:44:17;8.63;;;4.57;;
59054;SDS011;44845;51.444;7.460;2023-04-06T07:46:42;11.82;;;4.72;;
59054;SDS011;44845;51.444;7.460;2023-04-06T07:49:07;8.70;;;5.32;;
59054;SDS011;44845;51.444;7.460;2023-04-06T07:51:35;8.57;;;4.75;;
59054;SDS011;44845;51.444;7.460;2023-04-06T07:54:04;12.10;;;5.57;;
59054;SDS011;44845;51.444;7.460;2023-04-06T07:56:29;8.38;;;5.53;;
59054;SDS011;44845;51.444;7.460;2023-04-06T07:58:55;7.75;;;5.45;;
59054;SDS011;44845;51.444;7.460;2023-04-06T08:01:23;11.70;;;6.00;;
59054;SDS011;44845;51.444;7.460;2023-04-06T08:03:50;8.13;;;5.07;;
59054;SDS011;44845;51.444;7.460;2023-04-06T08:06:15;11.30;;;5.13;;
59054;SDS011;44845;51.444;7.460;2023-04-06T08:08:41;11.05;;;5.60;;
59054;SDS011;44845;51.444;7.460;2023-04-06T08:11:07;10.95;;;5.55;;
59054;SDS011;44845;51.444;7.460;2023-04-06T08:13:33;10.82;;;6.05;;
59054;SDS011;44845;51.444;7.460;2023-04-06T08:15:58;8.80;;;5.47;;
59054;SDS011;44845;51.444;7.460;2023-04-06T08:18:25;7.60;;;5.00;;
59054;SDS011;44845;51.444;7.460;2023-04-06T08:20:50;8.23;;;5.20;;
59054;SDS011;44845;51.444;7.460;2023-04-06T08:23:16;10.25;;;5.57;;
59054;SDS011;44845;51.444;7.460;2023-04-06T08:25:41;8.80;;;5.65;;
59054;SDS011;44845;51.444;7.460;2023-04-06T08:28:07;9.32;;;5.85;;
59054;SDS011;44845;51.444;7.460;2023-04-06T08:30:34;11.27;;;5.65;;
59054;SDS011;44845;51.444;7.460;2023-04-06T08:32:59;8.20;;;5.47;;
59054;SDS011;44845;51.444;7.460;2023-04-06T08:35:25;7.85;;;5.72;;
59054;SDS011;44845;51.444;7.460;2023-04-06T08:37:51;11.95;;;5.65;;
59054;SDS011;44845;51.444;7.460;2023-04-06T08:40:17;8.15;;;6.18;;
59054;SDS011;44845;51.444;7.460;2023-04-06T08:42:44;8.70;;;5.47;;
59054;SDS011;44845;51.444;7.460;2023-04-06T08:45:16;11.70;;;6.00;;
59054;SDS011;44845;51.444;7.460;2023-04-06T08:47:42;10.35;;;6.18;;
59054;SDS011;44845;51.444;7.460;2023-04-06T08:50:09;9.55;;;6.50;;
59054;SDS011;44845;51.444;7.460;2023-04-06T08:52:36;10.00;;;6.55;;
59054;SDS011;44845;51.444;7.460;2023-04-06T08:55:02;11.93;;;6.78;;
59054;SDS011;44845;51.444;7.460;2023-04-06T08:57:28;9.57;;;6.45;;
59054;SDS011;44845;51.444;7.460;2023-04-06T08:59:54;8.77;;;5.78;;
59054;SDS011;44845;51.444;7.460;2023-04-06T09:02:21;8.95;;;5.78;;
59054;SDS011;44845;51.444;7.460;2023-04-06T09:04:52;11.95;;;6.45;;
59054;SDS011;44845;51.444;7.460;2023-04-06T09:07:18;9.65;;;6.15;;
59054;SDS011;44845;51.444;7.460;2023-04-06T09:09:44;9.27;;;6.50;;
59054;SDS011;44845;51.444;7.460;2023-04-06T09:12:29;9.18;;;6.40;;
59054;SDS011;44845;51.444;7.460;2023-04-06T09:14:55;11.10;;;6.40;;
59054;SDS011;44845;51.444;7.460;2023-04-06T09:17:28;12.43;;;7.43;;
59054;SDS011;44845;51.444;7.460;2023-04-06T09:19:55;12.77;;;8.02;;
59054;SDS011;44845;51.444;7.460;2023-04-06T09:22:21;12.05;;;6.63;;
59054;SDS011;44845;51.444;7.460;2023-04-06T09:24:51;9.93;;;6.95;;
59054;SDS011;44845;51.444;7.460;2023-04-06T09:27:18;16.85;;;7.38;;
59054;SDS011;44845;51.444;7.460;2023-04-06T09:30:08;13.07;;;7.32;;
59054;SDS011;44845;51.444;7.460;2023-04-06T09:32:45;13.00;;;7.10;;
59054;SDS011;44845;51.444;7.460;2023-04-06T09:37:38;12.40;;;6.60;;
59054;SDS011;44845;51.444;7.460;2023-04-06T09:40:04;13.57;;;6.60;;
59054;SDS011;44845;51.444;7.460;2023-04-06T09:42:30;11.45;;;7.25;;
59054;SDS011;44845;51.444;7.460;2023-04-06T09:44:56;10.75;;;7.25;;
59054;SDS011;44845;51.444;7.460;2023-04-06T09:47:21;11.25;;;6.50;;
59054;SDS011;44845;51.444;7.460;2023-04-06T09:49:48;10.07;;;6.65;;
59054;SDS011;44845;51.444;7.460;2023-04-06T09:52:18;10.50;;;6.97;;
59054;SDS011;44845;51.444;7.460;2023-04-06T09:54:46;12.32;;;6.93;;
59054;SDS011;44845;51.444;7.460;2023-04-06T10:00:09;14.48;;;8.23;;
59054;SDS011;44845;51.444;7.460;2023-04-06T10:05:19;15.15;;;9.55;;
59054;SDS011;44845;51.444;7.460;2023-04-06T10:07:45;13.18;;;8.68;;
59054;SDS011;44845;51.444;7.460;2023-04-06T10:10:13;19.85;;;10.27;;
59054;SDS011;44845;51.444;7.460;2023-04-06T10:12:39;18.02;;;10.80;;
59054;SDS011;44845;51.444;7.460;2023-04-06T10:15:07;17.25;;;9.85;;
59054;SDS011;44845;51.444;7.460;2023-04-06T10:17:33;19.60;;;10.90;;
59054;SDS011;44845;51.444;7.460;2023-04-06T10:22:54;17.25;;;10.77;;
59054;SDS011;44845;51.444;7.460;2023-04-06T10:25:29;19.10;;;11.00;;
59054;SDS011;44845;51.444;7.460;2023-04-06T10:27:59;18.48;;;11.70;;
59054;SDS011;44845;51.444;7.460;2023-04-06T10:30:25;19.75;;;11.32;;
59054;SDS011;44845;51.444;7.460;2023-04-06T10:32:52;20.67;;;11.50;;
59054;SDS011;44845;51.444;7.460;2023-04-06T10:35:18;21.92;;;11.75;;
59054;SDS011;44845;51.444;7.460;2023-04-06T10:37:47;21.67;;;11.55;;
59054;SDS011;44845;51.444;7.460;2023-04-06T10:40:35;20.52;;;12.02;;
59054;SDS011;44845;51.444;7.460;2023-04-06T10:45:59;18.08;;;11.85;;
59054;SDS011;44845;51.444;7.460;2023-04-06T10:48:35;18.25;;;11.98;;
59054;SDS011;44845;51.444;7.460;2023-04-06T10:51:11;20.42;;;12.50;;
59054;SDS011;44845;51.444;7.460;2023-04-06T10:53:38;20.45;;;11.90;;
59054;SDS011;44845;51.444;7.460;2023-04-06T10:56:09;18.00;;;11.55;;
59054;SDS011;44845;51.444;7.460;2023-04-06T10:58:38;16.52;;;11.48;;
59054;SDS011;44845;51.444;7.460;2023-04-06T11:01:16;20.38;;;12.30;;
59054;SDS011;44845;51.444;7.460;2023-04-06T11:03:47;22.60;;;13.50;;
59054;SDS011;44845;51.444;7.460;2023-04-06T11:06:23;20.48;;;12.32;;
59054;SDS011;44845;51.444;7.460;2023-04-06T11:08:50;19.25;;;12.60;;
59054;SDS011;44845;51.444;7.460;2023-04-06T11:11:17;18.60;;;11.75;;
59054;SDS011;44845;51.444;7.460;2023-04-06T11:13:46;19.88;;;11.25;;
59054;SDS011;44845;51.444;7.460;2023-04-06T11:16:22;18.63;;;11.00;;
59054;SDS011;44845;51.444;7.460;2023-04-06T11:18:51;17.92;;;11.27;;
59054;SDS011;44845;51.444;7.460;2023-04-06T11:21:42;17.80;;;11.02;;
59054;SDS011;44845;51.444;7.460;2023-04-06T11:24:14;18.65;;;11.05;;
59054;SDS011;44845;51.444;7.460;2023-04-06T11:29:14;19.27;;;12.23;;
59054;SDS011;44845;51.444;7.460;2023-04-06T11:31:48;19.38;;;11.50;;
59054;SDS011;44845;51.444;7.460;2023-04-06T11:34:18;15.17;;;11.27;;
59054;SDS011;44845;51.444;7.460;2023-04-06T11:36:44;17.23;;;11.00;;
59054;SDS011;44845;51.444;7.460;2023-04-06T11:39:11;19.13;;;12.45;;
59054;SDS011;44845;51.444;7.460;2023-04-06T11:41:38;15.98;;;10.88;;
59054;SDS011;44845;51.444;7.460;2023-04-06T11:44:04;18.15;;;11.60;;
59054;SDS011;44845;51.444;7.460;2023-04-06T11:46:30;18.00;;;11.68;;
59054;SDS011;44845;51.444;7.460;2023-04-06T11:48:59;16.23;;;11.60;;
59054;SDS011;44845;51.444;7.460;2023-04-06T11:51:25;18.63;;;11.50;;
59054;SDS011;44845;51.444;7.460;2023-04-06T11:53:54;20.90;;;11.57;;
59054;SDS011;44845;51.444;7.460;2023-04-06T11:56:27;19.10;;;11.32;;
59054;SDS011;44845;51.444;7.460;2023-04-06T11:58:54;20.65;;;13.40;;
59054;SDS011;44845;51.444;7.460;2023-04-06T12:01:21;20.25;;;13.25;;
59054;SDS011;44845;51.444;7.460;2023-04-06T12:03:46;20.23;;;12.75;;
59054;SDS011;44845;51.444;7.460;2023-04-06T12:06:12;18.42;;;12.98;;
59054;SDS011;44845;51.444;7.460;2023-04-06T12:08:37;24.33;;;13.38;;
59054;SDS011;44845;51.444;7.460;2023-04-06T12:11:03;20.70;;;13.40;;
59054;SDS011;44845;51.444;7.460;2023-04-06T12:13:28;20.73;;;12.82;;
59054;SDS011;44845;51.444;7.460;2023-04-06T12:15:53;18.95;;;11.88;;
59054;SDS011;44845;51.444;7.460;2023-04-06T12:18:19;18.27;;;12.40;;
59054;SDS011;44845;51.444;7.460;2023-04-06T12:20:44;19.48;;;13.27;;
59054;SDS011;44845;51.444;7.460;2023-04-06T12:23:10;18.23;;;12.65;;
59054;SDS011;44845;51.444;7.460;2023-04-06T12:25:35;22.17;;;11.60;;
59054;SDS011;44845;51.444;7.460;2023-04-06T12:28:01;20.02;;;11.75;;
59054;SDS011;44845;51.444;7.460;2023-04-06T12:30:26;18.30;;;10.55;;
59054;SDS011;44845;51.444;7.460;2023-04-06T12:32:51;17.20;;;10.35;;
59054;SDS011;44845;51.444;7.460;2023-04-06T12:35:17;16.25;;;11.00;;
59054;SDS011;44845;51.444;7.460;2023-04-06T12:37:42;15.27;;;10.07;;
59054;SDS011;44845;51.444;7.460;2023-04-06T12:40:07;15.43;;;9.57;;
59054;SDS011;44845;51.444;7.460;2023-04-06T12:42:35;13.75;;;10.00;;
59054;SDS011;44845;51.444;7.460;2023-04-06T12:45:01;15.45;;;9.68;;
59054;SDS011;44845;51.444;7.460;2023-04-06T12:47:26;13.70;;;9.63;;
59054;SDS011;44845;51.444;7.460;2023-04-06T12:49:52;16.35;;;9.73;;
59054;SDS011;44845;51.444;7.460;2023-04-06T12:52:18;12.68;;;8.95;;
59054;SDS011;44845;51.444;7.460;2023-04-06T12:54:44;12.68;;;9.02;;
59054;SDS011;44845;51.444;7.460;2023-04-06T12:57:12;14.23;;;10.07;;
59054;SDS011;44845;51.444;7.460;2023-04-06T12:59:37;12.13;;;8.75;;
59054;SDS011;44845;51.444;7.460;2023-04-06T13:02:03;18.27;;;8.60;;
59054;SDS011;44845;51.444;7.460;2023-04-06T13:04:29;13.07;;;8.48;;
59054;SDS011;44845;51.444;7.460;2023-04-06T13:06:55;13.40;;;9.27;;
59054;SDS011;44845;51.444;7.460;2023-04-06T13:09:20;14.43;;;10.18;;
59054;SDS011;44845;51.444;7.460;2023-04-06T13:11:45;16.77;;;9.93;;
59054;SDS011;44845;51.444;7.460;2023-04-06T13:14:11;15.27;;;9.55;;
59054;SDS011;44845;51.444;7.460;2023-04-06T13:16:36;14.50;;;8.95;;
59054;SDS011;44845;51.444;7.460;2023-04-06T13:19:02;13.02;;;8.50;;
59054;SDS011;44845;51.444;7.460;2023-04-06T13:21:27;12.77;;;8.80;;
59054;SDS011;44845;51.444;7.460;2023-04-06T13:23:53;13.45;;;8.35;;
59054;SDS011;44845;51.444;7.460;2023-04-06T13:26:18;15.82;;;9.68;;
59054;SDS011;44845;51.444;7.460;2023-04-06T13:28:43;12.57;;;8.10;;
59054;SDS011;44845;51.444;7.460;2023-04-06T13:31:09;15.65;;;8.68;;
59054;SDS011;44845;51.444;7.460;2023-04-06T13:33:35;9.90;;;5.43;;
59054;SDS011;44845;51.444;7.460;2023-04-06T13:36:00;12.60;;;6.50;;
59054;SDS011;44845;51.444;7.460;2023-04-06T13:38:26;13.95;;;7.30;;
59054;SDS011;44845;51.444;7.460;2023-04-06T13:40:51;10.57;;;6.75;;
59054;SDS011;44845;51.444;7.460;2023-04-06T13:43:17;8.55;;;6.53;;
59054;SDS011;44845;51.444;7.460;2023-04-06T13:45:52;9.98;;;7.28;;
59054;SDS011;44845;51.444;7.460;2023-04-06T13:48:20;9.57;;;6.78;;
59054;SDS011;44845;51.444;7.460;2023-04-06T13:50:45;9.32;;;6.30;;
59054;SDS011;44845;51.444;7.460;2023-04-06T13:53:11;11.00;;;7.75;;
59054;SDS011;44845;51.444;7.460;2023-04-06T13:55:36;11.93;;;7.68;;
59054;SDS011;44845;51.444;7.460;2023-04-06T13:58:02;9.90;;;7.10;;
59054;SDS011;44845;51.444;7.460;2023-04-06T14:00:27;10.73;;;6.82;;
59054;SDS011;44845;51.444;7.460;2023-04-06T14:02:55;10.85;;;5.75;;
59054;SDS011;44845;51.444;7.460;2023-04-06T14:05:21;7.18;;;5.28;;
59054;SDS011;44845;51.444;7.460;2023-04-06T14:07:48;9.52;;;4.68;;
59054;SDS011;44845;51.444;7.460;2023-04-06T14:10:13;6.63;;;4.28;;
59054;SDS011;44845;51.444;7.460;2023-04-06T14:12:42;6.05;;;4.53;;
59054;SDS011;44845;51.444;7.460;2023-04-06T14:15:11;5.82;;;4.10;;
59054;SDS011;44845;51.444;7.460;2023-04-06T14:17:37;6.22;;;4.05;;
59054;SDS011;44845;51.444;7.460;2023-04-06T14:20:03;8.98;;;4.40;;
59054;SDS011;44845;51.444;7.460;2023-04-06T14:22:30;9.30;;;4.57;;
59054;SDS011;44845;51.444;7.460;2023-04-06T14:24:56;6.95;;;4.60;;
59054;SDS011;44845;51.444;7.460;2023-04-06T14:27:21;8.93;;;4.50;;
59054;SDS011;44845;51.444;7.460;2023-04-06T14:29:47;10.82;;;5.88;;
59054;SDS011;44845;51.444;7.460;2023-04-06T14:32:12;11.25;;;5.93;;
59054;SDS011;44845;51.444;7.460;2023-04-06T14:34:37;10.73;;;7.10;;
59054;SDS011;44845;51.444;7.460;2023-04-06T14:37:03;9.63;;;7.03;;
59054;SDS011;44845;51.444;7.460;2023-04-06T14:39:28;11.98;;;7.00;;
59054;SDS011;44845;51.444;7.460;2023-04-06T14:41:53;13.82;;;8.18;;
59054;SDS011;44845;51.444;7.460;2023-04-06T14:44:19;11.10;;;8.43;;
59054;SDS011;44845;51.444;7.460;2023-04-06T14:46:45;12.93;;;8.10;;
59054;SDS011;44845;51.444;7.460;2023-04-06T14:49:11;9.88;;;7.35;;